Time;durP1;ratioP1;P1;durP2;ratioP2;P2;SDS_P1;SDS_P2;PMS_P1;PMS_P2;Temp;Humidity;BMP_temperature;BMP_pressure;BME280_temperature;BME280_humidity;BME280_pressure;Samples;Min_cycle;Max_cycle;Signal;HPM_P1;HPM_P2
2023/03/18 00:02:17;;;;;;;2.00;1.90;;;;;;;5.10;70.67;98635.94;5032452;28;20660;-59
2023/03/18 00:04:43;;;;;;;3.08;2.15;;;;;;;5.43;70.77;98682.38;5032676;28;20261;-59
2023/03/18 00:07:11;;;;;;;2.35;2.15;;;;;;;5.20;70.58;98639.75;5032390;28;20166;-59
2023/03/18 00:09:37;;;;;;;8.65;2.67;;;;;;;5.52;70.80;98685.34;5032318;28;20198;-59
2023/03/18 00:12:03;;;;;;;1.77;1.67;;;;;;;5.56;70.92;98689.47;5032364;28;20661;-60
2023/03/18 00:14:30;;;;;;;2.30;2.10;;;;;;;5.73;70.75;98722.09;5032243;28;20301;-59
2023/03/18 00:16:56;;;;;;;2.08;1.98;;;;;;;5.72;70.78;98723.00;5032296;28;20224;-60
2023/03/18 00:19:23;;;;;;;2.15;1.95;;;;;;;5.26;71.25;98662.56;5032298;28;20182;-60
2023/03/18 00:21:51;;;;;;;2.05;1.90;;;;;;;5.62;70.80;98690.91;5032252;28;20178;-60
2023/03/18 00:24:16;;;;;;;1.75;1.65;;;;;;;5.71;70.58;98713.63;5031330;28;20659;-59
2023/03/18 00:26:43;;;;;;;2.45;2.25;;;;;;;5.36;71.45;98674.09;5031955;28;20183;-59
2023/03/18 00:29:10;;;;;;;2.30;2.20;;;;;;;5.24;71.58;98646.41;5031258;28;20214;-59
2023/03/18 00:31:39;;;;;;;2.15;2.00;;;;;;;5.61;71.85;98714.91;5031678;28;20189;-59
2023/03/18 00:34:05;;;;;;;2.10;1.90;;;;;;;5.57;71.55;98708.25;5031494;28;20202;-59
2023/03/18 00:36:31;;;;;;;1.98;1.83;;;;;;;5.12;71.59;98621.28;5032140;28;20352;-59
2023/03/18 00:39:02;;;;;;;2.15;2.05;;;;;;;5.50;71.58;98682.03;5031530;28;20186;-59
2023/03/18 00:41:28;;;;;;;4.10;2.28;;;;;;;5.29;71.40;98607.72;5032034;28;20257;-60
2023/03/18 00:43:54;;;;;;;2.17;2.08;;;;;;;5.87;71.23;98697.50;5031946;28;20182;-59
2023/03/18 00:46:25;;;;;;;2.10;2.00;;;;;;;5.74;70.82;98677.53;5031919;28;20254;-59
2023/03/18 00:48:52;;;;;;;2.30;2.10;;;;;;;5.81;70.76;98700.34;5029271;28;20653;-59
2023/03/18 00:51:19;;;;;;;1.73;1.63;;;;;;;5.61;70.89;98643.91;5028697;28;20218;-59
2023/03/18 00:53:50;;;;;;;2.35;2.15;;;;;;;5.51;71.07;98644.34;5029449;28;20336;-59
2023/03/18 00:56:18;;;;;;;2.25;2.05;;;;;;;5.84;71.23;98686.53;5029436;28;20198;-59
2023/03/18 00:58:44;;;;;;;2.30;1.90;;;;;;;5.24;71.08;98584.84;5029512;28;20819;-59
2023/03/18 01:01:12;;;;;;;2.08;1.95;;;;;;;5.52;71.10;98620.34;5029524;28;20596;-59
2023/03/18 01:03:41;;;;;;;2.05;1.95;;;;;;;5.79;70.20;98643.06;5026975;28;20183;-59
2023/03/18 01:06:08;;;;;;;2.15;2.05;;;;;;;5.63;69.86;98621.56;5029416;28;20187;-59
2023/03/18 01:08:34;;;;;;;2.15;2.05;;;;;;;5.65;69.86;98614.59;5029303;28;20218;-59
2023/03/18 01:11:01;;;;;;;2.65;2.55;;;;;;;5.65;69.80;98588.94;5029406;28;20252;-59
2023/03/18 01:13:26;;;;;;;3.85;3.38;;;;;;;5.89;70.26;98636.63;5029602;28;20193;-59
2023/03/18 01:15:53;;;;;;;4.68;3.70;;;;;;;6.26;69.99;98682.81;5029405;28;20644;-59
2023/03/18 01:18:19;;;;;;;4.50;3.72;;;;;;;6.36;70.24;98684.03;5029297;28;20190;-59
2023/03/18 01:20:45;;;;;;;3.38;3.03;;;;;;;6.33;69.98;98676.47;5031169;28;20649;-59
2023/03/18 01:23:12;;;;;;;3.80;3.50;;;;;;;6.51;69.48;98692.75;5031673;28;20171;-59
2023/03/18 01:25:37;;;;;;;4.07;3.58;;;;;;;6.50;69.05;98670.53;5031642;28;20194;-59
2023/03/18 01:28:04;;;;;;;3.22;3.03;;;;;;;6.20;68.70;98600.06;5031537;28;20186;-59
2023/03/18 01:30:30;;;;;;;3.28;3.05;;;;;;;6.04;69.20;98597.38;5031624;28;20179;-59
2023/03/18 01:32:56;;;;;;;4.55;3.63;;;;;;;6.06;69.25;98598.13;5031594;28;20171;-59
2023/03/18 01:35:23;;;;;;;5.72;4.15;;;;;;;6.37;69.13;98624.03;5031796;28;20182;-59
2023/03/18 01:37:52;;;;;;;6.50;4.15;;;;;;;6.24;68.52;98583.59;5035093;28;20657;-59
2023/03/18 01:40:19;;;;;;;4.53;3.85;;;;;;;6.82;68.17;98668.06;5035015;28;20193;-59
2023/03/18 01:42:52;;;;;;;4.50;4.10;;;;;;;6.36;67.99;98594.09;5034958;28;20179;-60
2023/03/18 01:45:23;;;;;;;4.20;3.38;;;;;;;6.54;68.62;98631.75;5034931;28;20265;-59
2023/03/18 01:47:49;;;;;;;4.00;3.65;;;;;;;6.61;69.50;98669.13;5034867;28;20167;-59
2023/03/18 01:50:19;;;;;;;3.13;2.92;;;;;;;6.17;69.86;98607.94;5034890;28;20675;-59
2023/03/18 01:52:46;;;;;;;4.75;2.83;;;;;;;5.89;69.96;98580.13;5034860;28;20169;-59
2023/03/18 01:55:16;;;;;;;4.10;3.15;;;;;;;5.89;70.32;98585.25;5034579;28;20195;-59
2023/03/18 01:57:43;;;;;;;3.38;3.15;;;;;;;6.14;70.95;98642.28;5034427;28;20189;-59
2023/03/18 02:00:10;;;;;;;3.08;2.85;;;;;;;5.89;70.93;98580.13;5034676;28;20175;-59
2023/03/18 02:02:39;;;;;;;2.95;2.67;;;;;;;6.43;70.61;98661.44;5034575;28;20182;-59
2023/03/18 02:05:07;;;;;;;3.10;2.90;;;;;;;6.13;71.38;98632.91;5030163;28;20215;-59
2023/03/18 02:07:34;;;;;;;4.75;2.80;;;;;;;5.90;70.87;98573.28;5034548;28;20213;-59
2023/03/18 02:10:04;;;;;;;2.63;2.42;;;;;;;5.81;71.53;98577.09;5034475;28;20210;-59
2023/03/18 02:12:37;;;;;;;3.15;2.70;;;;;;;6.26;71.97;98654.56;5051823;28;20730;-59
2023/03/18 02:15:07;;;;;;;2.80;2.60;;;;;;;6.27;71.73;98652.81;5052006;28;20289;-59
2023/03/18 02:17:36;;;;;;;2.70;2.50;;;;;;;5.99;71.24;98572.81;5031847;28;20566;-59
2023/03/18 02:20:19;;;;;;;2.88;2.67;;;;;;;6.54;70.99;98664.34;5031925;28;20198;-60
2023/03/18 02:22:56;;;;;;;2.95;2.75;;;;;;;6.13;71.13;98594.38;5031904;28;20248;-60
2023/03/18 02:25:51;;;;;;;2.95;2.75;;;;;;;6.52;71.01;98666.16;5031855;28;20208;-60
2023/03/18 02:28:26;;;;;;;4.18;2.92;;;;;;;5.89;72.17;98592.16;5023973;28;20695;-60
2023/03/18 02:30:59;;;;;;;2.72;2.53;;;;;;;5.71;72.56;98570.69;5031810;28;20181;-59
2023/03/18 02:33:31;;;;;;;2.78;2.58;;;;;;;6.03;72.22;98602.59;5031707;28;20623;-60
2023/03/18 02:36:02;;;;;;;3.92;3.63;;;;;;;6.00;71.35;98566.81;5031685;28;20170;-60
2023/03/18 02:38:27;;;;;;;5.03;4.05;;;;;;;6.67;70.91;98655.97;5031601;28;20578;-60
2023/03/18 02:40:52;;;;;;;4.00;3.60;;;;;;;6.30;70.38;98581.53;5031823;28;20185;-60
2023/03/18 02:43:23;;;;;;;3.42;3.20;;;;;;;6.83;69.29;98679.19;5023184;28;20203;-60
2023/03/18 02:45:54;;;;;;;4.10;3.20;;;;;;;6.62;70.14;98675.91;5011707;28;20280;-60
2023/03/18 02:48:22;;;;;;;3.22;3.03;;;;;;;6.05;70.90;98581.06;5020084;28;20210;-60
2023/03/18 02:50:49;;;;;;;3.30;3.00;;;;;;;6.23;71.00;98626.44;5033760;28;20185;-59
2023/03/18 02:53:14;;;;;;;3.83;3.38;;;;;;;5.97;72.20;98620.84;5033694;28;20175;-59
2023/03/18 02:55:41;;;;;;;3.42;3.15;;;;;;;5.99;72.50;98629.31;5033715;28;20199;-59
2023/03/18 02:58:08;;;;;;;3.70;3.30;;;;;;;5.60;73.10;98578.06;5033533;28;20637;-59
2023/03/18 03:00:34;;;;;;;4.65;3.90;;;;;;;5.68;73.44;98596.50;5033554;28;20174;-59
2023/03/18 03:03:00;;;;;;;6.95;4.07;;;;;;;6.11;73.20;98659.59;5033472;28;20553;-59
2023/03/18 03:05:26;;;;;;;4.10;3.60;;;;;;;5.84;73.91;98661.66;5033441;28;20243;-59
2023/03/18 03:07:52;;;;;;;4.35;3.40;;;;;;;6.01;73.91;98674.56;5033363;28;20181;-60
2023/03/18 03:10:18;;;;;;;3.80;3.50;;;;;;;6.10;73.44;98681.88;5033363;28;20182;-59
2023/03/18 03:12:44;;;;;;;3.85;3.53;;;;;;;6.02;73.28;98665.97;5032995;28;20201;-59
2023/03/18 03:15:10;;;;;;;5.00;3.95;;;;;;;5.79;73.34;98614.81;5033262;28;20179;-59
2023/03/18 03:17:36;;;;;;;4.35;3.35;;;;;;;6.06;73.33;98662.34;5032913;28;20182;-59
2023/03/18 03:20:04;;;;;;;4.63;3.53;;;;;;;6.17;73.21;98667.81;5033222;28;20182;-59
2023/03/18 03:22:31;;;;;;;4.38;3.45;;;;;;;5.97;73.86;98662.78;5032805;28;20559;-59
2023/03/18 03:24:57;;;;;;;3.83;3.38;;;;;;;5.61;74.07;98592.56;5032834;28;20179;-59
2023/03/18 03:27:22;;;;;;;4.40;3.95;;;;;;;5.86;74.53;98652.19;5033016;28;20194;-59
2023/03/18 03:29:48;;;;;;;3.75;3.45;;;;;;;5.65;74.10;98612.03;5032994;28;20335;-59
2023/03/18 03:32:14;;;;;;;3.92;3.53;;;;;;;5.72;74.28;98638.28;5032947;28;20170;-59
2023/03/18 03:34:42;;;;;;;3.28;2.97;;;;;;;5.67;74.60;98646.19;5030812;28;20721;-60
2023/03/18 03:37:07;;;;;;;3.50;3.20;;;;;;;5.61;75.10;98625.09;5032863;28;20182;-60
2023/03/18 03:39:33;;;;;;;3.80;3.28;;;;;;;5.60;74.87;98638.81;5032860;28;20178;-60
2023/03/18 03:41:58;;;;;;;4.90;3.15;;;;;;;5.43;75.81;98634.44;5032788;28;20171;-59
2023/03/18 03:44:24;;;;;;;3.35;3.05;;;;;;;5.11;76.08;98582.88;5032775;28;20178;-59
2023/03/18 03:46:50;;;;;;;2.97;2.72;;;;;;;5.52;76.33;98669.97;5032657;28;20660;-59
2023/03/18 03:49:16;;;;;;;3.25;2.95;;;;;;;5.30;77.34;98646.13;5032608;28;20199;-59
2023/03/18 03:51:41;;;;;;;2.85;2.65;;;;;;;4.91;78.14;98580.38;5032625;28;20229;-59
2023/03/18 03:54:07;;;;;;;3.33;2.90;;;;;;;5.56;77.61;98676.63;5032561;28;20613;-59
2023/03/18 03:56:32;;;;;;;3.75;3.20;;;;;;;5.20;77.33;98601.25;5031875;28;20687;-59
2023/03/18 03:58:59;;;;;;;3.08;2.78;;;;;;;5.30;76.64;98607.66;5031772;28;20183;-59
2023/03/18 04:01:25;;;;;;;3.10;2.90;;;;;;;5.69;76.77;98664.91;5032447;28;20174;-59
2023/03/18 04:03:50;;;;;;;3.45;3.15;;;;;;;5.36;76.20;98593.75;5032437;28;20175;-59
2023/03/18 04:06:16;;;;;;;3.60;3.30;;;;;;;5.57;75.47;98606.44;5032416;28;20182;-59
2023/03/18 04:08:41;;;;;;;4.40;3.22;;;;;;;5.46;75.12;98595.81;5029792;28;20716;-59
2023/03/18 04:11:06;;;;;;;3.28;2.97;;;;;;;6.06;75.09;98690.59;5029993;28;20190;-60
2023/03/18 04:13:33;;;;;;;4.57;4.18;;;;;;;5.96;75.01;98662.84;5025215;28;20574;-60
2023/03/18 04:15:58;;;;;;;6.45;5.10;;;;;;;6.20;74.43;98680.53;5029895;28;20185;-60
2023/03/18 04:18:24;;;;;;;7.55;5.78;;;;;;;6.30;74.08;98673.22;5029864;28;20285;-60
2023/03/18 04:20:50;;;;;;;6.90;6.05;;;;;;;6.01;73.67;98620.63;5029894;28;20185;-59
2023/03/18 04:23:18;;;;;;;9.40;6.13;;;;;;;6.45;73.51;98687.91;5029835;28;20230;-60
2023/03/18 04:25:43;;;;;;;8.65;7.03;;;;;;;6.21;73.08;98666.78;5029843;28;20178;-59
2023/03/18 04:28:09;;;;;;;9.07;7.97;;;;;;;6.00;72.77;98624.09;5029739;28;20214;-59
2023/03/18 04:30:34;;;;;;;7.32;6.00;;;;;;;6.21;72.66;98676.22;5029724;28;20289;-60
2023/03/18 04:33:00;;;;;;;6.43;5.82;;;;;;;5.76;73.48;98612.38;5029765;28;20193;-60
2023/03/18 04:35:27;;;;;;;6.60;5.57;;;;;;;5.91;74.77;98669.94;5029757;28;20237;-60
2023/03/18 04:37:53;;;;;;;6.68;5.72;;;;;;;5.82;75.35;98668.63;5029711;28;20671;-60
2023/03/18 04:40:19;;;;;;;5.95;5.35;;;;;;;5.70;76.14;98660.59;5031148;28;20277;-60
2023/03/18 04:42:46;;;;;;;7.15;5.32;;;;;;;5.77;76.27;98652.56;5032010;28;20186;-60
2023/03/18 04:45:13;;;;;;;5.68;5.15;;;;;;;5.57;76.23;98609.00;5032016;28;20174;-60
2023/03/18 04:47:40;;;;;;;6.15;5.30;;;;;;;5.53;76.45;98597.19;5032010;28;20257;-59
2023/03/18 04:50:09;;;;;;;9.07;6.28;;;;;;;6.11;75.98;98675.81;5031909;28;20675;-59
2023/03/18 04:52:35;;;;;;;7.68;6.75;;;;;;;5.78;75.69;98633.66;5031558;28;20547;-59
2023/03/18 04:55:00;;;;;;;8.27;5.97;;;;;;;5.66;76.07;98623.16;5031792;28;20232;-59
2023/03/18 04:57:27;;;;;;;9.05;6.97;;;;;;;5.70;76.31;98630.63;5031922;28;20593;-59
2023/03/18 04:59:52;;;;;;;12.65;8.55;;;;;;;6.10;75.63;98696.44;5031949;28;20196;-59
2023/03/18 05:02:18;;;;;;;11.70;8.30;;;;;;;5.77;74.77;98608.91;5031868;28;20612;-59
2023/03/18 05:04:44;;;;;;;11.10;7.43;;;;;;;6.22;73.04;98658.16;5031857;28;20187;-60
2023/03/18 05:07:14;;;;;;;9.98;6.10;;;;;;;6.30;72.42;98660.38;5032116;28;20179;-59
2023/03/18 05:09:40;;;;;;;7.85;5.90;;;;;;;6.22;72.54;98660.75;5032381;28;20198;-59
2023/03/18 05:12:09;;;;;;;6.45;5.80;;;;;;;5.88;73.30;98609.28;5035590;28;20274;-59
2023/03/18 05:14:35;;;;;;;9.30;6.32;;;;;;;6.10;72.92;98651.03;5035630;28;20179;-59
2023/03/18 05:17:02;;;;;;;6.20;5.10;;;;;;;6.06;72.82;98644.38;5035471;28;20182;-59
2023/03/18 05:19:28;;;;;;;7.13;5.47;;;;;;;6.28;72.44;98667.31;5013190;28;20340;-59
2023/03/18 05:21:54;;;;;;;6.18;5.00;;;;;;;6.15;72.52;98654.22;5013340;28;20183;-59
2023/03/18 05:24:19;;;;;;;6.22;5.18;;;;;;;6.31;73.05;98674.88;5013246;28;20227;-59
2023/03/18 05:26:45;;;;;;;5.47;4.97;;;;;;;6.57;72.60;98708.72;5013206;28;20278;-59
2023/03/18 05:29:10;;;;;;;7.22;5.45;;;;;;;6.07;72.07;98620.34;5013073;28;20210;-59
2023/03/18 05:31:36;;;;;;;8.32;6.28;;;;;;;6.42;71.69;98681.16;5013167;28;20171;-59
2023/03/18 05:34:01;;;;;;;6.35;5.70;;;;;;;6.66;70.93;98698.00;5013359;28;20210;-59
2023/03/18 05:36:28;;;;;;;6.72;5.47;;;;;;;6.71;70.47;98708.88;5012991;28;20179;-59
2023/03/18 05:38:53;;;;;;;7.97;5.90;;;;;;;6.74;69.42;98710.47;5012884;28;20202;-59
2023/03/18 05:41:19;;;;;;;6.35;5.50;;;;;;;6.80;69.54;98708.44;5012949;28;20183;-59
2023/03/18 05:43:45;;;;;;;8.35;6.50;;;;;;;6.65;69.34;98673.19;5012895;28;20191;-59
2023/03/18 05:46:10;;;;;;;8.05;6.80;;;;;;;6.86;69.20;98697.00;5012798;28;20187;-59
2023/03/18 05:48:36;;;;;;;8.77;6.68;;;;;;;6.44;68.81;98632.28;5012762;28;20207;-59
2023/03/18 05:51:03;;;;;;;11.80;7.63;;;;;;;6.94;68.89;98706.03;5028976;28;20195;-59
2023/03/18 05:53:28;;;;;;;13.52;8.57;;;;;;;6.55;68.55;98636.00;5034736;28;20170;-59
2023/03/18 05:55:55;;;;;;;12.98;8.20;;;;;;;6.63;67.52;98639.00;5034343;28;20193;-59
2023/03/18 05:58:20;;;;;;;13.35;7.72;;;;;;;7.14;67.48;98711.03;5034724;28;20186;-59
2023/03/18 06:00:46;;;;;;;13.75;8.10;;;;;;;7.29;67.12;98724.88;5034697;28;20192;-59
2023/03/18 06:03:11;;;;;;;8.27;6.97;;;;;;;7.13;66.87;98709.38;5034632;28;20175;-59
2023/03/18 06:05:36;;;;;;;10.68;7.25;;;;;;;7.27;67.18;98732.66;5034652;28;20257;-60
2023/03/18 06:08:02;;;;;;;12.48;8.15;;;;;;;7.25;67.36;98719.03;5034502;28;20179;-60
2023/03/18 06:10:28;;;;;;;13.25;8.60;;;;;;;7.30;67.79;98716.22;5034430;28;20271;-59
2023/03/18 06:12:54;;;;;;;10.98;9.63;;;;;;;7.27;68.01;98700.94;5034527;28;20618;-60
2023/03/18 06:15:21;;;;;;;19.02;11.98;;;;;;;6.97;68.43;98633.88;5034413;28;20656;-60
2023/03/18 06:17:47;;;;;;;17.88;12.48;;;;;;;6.98;68.02;98627.81;5034611;28;20174;-60
2023/03/18 06:20:13;;;;;;;18.77;11.18;;;;;;;7.34;68.44;98695.41;5034017;28;20179;-60
2023/03/18 06:22:39;;;;;;;14.23;10.48;;;;;;;7.47;68.67;98703.34;5033436;28;20195;-60
2023/03/18 06:25:07;;;;;;;14.75;10.85;;;;;;;7.31;68.74;98667.25;5034289;28;20191;-60
2023/03/18 06:27:33;;;;;;;18.70;10.43;;;;;;;7.12;68.44;98625.34;5034193;28;20669;-60
2023/03/18 06:30:01;;;;;;;12.10;10.35;;;;;;;7.65;67.90;98703.22;5048446;28;20245;-60
2023/03/18 06:32:28;;;;;;;16.05;11.07;;;;;;;7.28;67.63;98633.94;5053782;28;20552;-60
2023/03/18 06:34:54;;;;;;;14.57;10.18;;;;;;;7.25;67.32;98625.56;5053807;28;20276;-60
2023/03/18 06:37:20;;;;;;;11.82;9.75;;;;;;;7.48;67.47;98656.94;5053708;28;20707;-60
2023/03/18 06:39:46;;;;;;;16.92;10.93;;;;;;;7.78;68.16;98706.81;5053429;28;20273;-60
2023/03/18 06:42:11;;;;;;;15.40;10.68;;;;;;;7.84;67.87;98711.66;5053558;28;20178;-60
2023/03/18 06:44:38;;;;;;;14.98;11.48;;;;;;;7.15;68.71;98614.06;5053652;28;20184;-60
2023/03/18 06:47:04;;;;;;;25.10;15.63;;;;;;;7.73;68.51;98689.94;5053764;28;20174;-61
2023/03/18 06:49:29;;;;;;;19.33;13.40;;;;;;;7.50;68.62;98656.81;5053529;28;20300;-60
2023/03/18 06:51:55;;;;;;;16.25;11.82;;;;;;;7.33;68.91;98634.53;5053537;28;20174;-60
2023/03/18 06:54:20;;;;;;;18.42;12.40;;;;;;;7.08;69.19;98618.72;5053626;28;20185;-60
2023/03/18 06:56:46;;;;;;;15.65;10.95;;;;;;;7.02;70.11;98634.47;5053760;28;20190;-60
2023/03/18 06:59:11;;;;;;;26.33;14.90;;;;;;;7.53;70.14;98700.44;5053065;28;20186;-60
2023/03/18 07:01:37;;;;;;;22.42;13.77;;;;;;;7.63;69.17;98674.13;5053221;28;20181;-60
2023/03/18 07:04:05;;;;;;;21.90;14.07;;;;;;;7.39;68.50;98612.81;5053419;28;20177;-60
2023/03/18 07:06:31;;;;;;;20.55;14.05;;;;;;;7.47;68.71;98616.63;5053362;28;20624;-60
2023/03/18 07:08:57;;;;;;;16.33;11.95;;;;;;;7.63;68.29;98632.94;5053225;28;20209;-60
2023/03/18 07:11:24;;;;;;;16.50;12.60;;;;;;;8.13;68.37;98705.78;5053186;28;20185;-60
2023/03/18 07:13:50;;;;;;;15.13;12.48;;;;;;;8.01;67.37;98654.91;5053189;28;20235;-60
2023/03/18 07:16:16;;;;;;;16.05;11.07;;;;;;;8.03;66.54;98621.31;5053149;28;20178;-60
2023/03/18 07:18:41;;;;;;;12.68;10.00;;;;;;;8.29;65.83;98660.25;5052273;28;20185;-60
2023/03/18 07:21:08;;;;;;;11.85;8.90;;;;;;;8.53;64.65;98696.72;5053090;28;20177;-60
2023/03/18 07:23:34;;;;;;;14.65;9.10;;;;;;;8.57;65.12;98711.09;5052997;28;20178;-60
2023/03/18 07:25:59;;;;;;;8.98;6.90;;;;;;;8.12;62.29;98636.25;5052782;28;20174;-60
2023/03/18 07:28:25;;;;;;;9.05;7.07;;;;;;;8.24;62.34;98661.41;5052698;28;20205;-60
2023/03/18 07:30:50;;;;;;;9.70;7.85;;;;;;;8.17;62.72;98645.44;5052466;28;20176;-60
2023/03/18 07:33:17;;;;;;;18.25;8.43;;;;;;;8.68;62.94;98711.34;5052188;28;20272;-60
2023/03/18 07:35:42;;;;;;;10.63;7.22;;;;;;;8.61;61.91;98671.31;5052799;28;20248;-60
2023/03/18 07:38:08;;;;;;;10.98;8.40;;;;;;;8.38;61.46;98620.22;5053054;28;20695;-60
2023/03/18 07:40:34;;;;;;;6.65;5.97;;;;;;;8.74;60.79;98662.78;5052413;28;20581;-60
2023/03/18 07:43:00;;;;;;;9.00;6.22;;;;;;;8.93;60.35;98699.53;5052317;28;20177;-60
2023/03/18 07:45:25;;;;;;;7.85;7.05;;;;;;;9.03;60.22;98710.97;5051830;28;20170;-60
2023/03/18 07:47:51;;;;;;;7.05;6.03;;;;;;;8.65;59.25;98632.38;5052043;28;20177;-60
2023/03/18 07:50:17;;;;;;;6.10;5.50;;;;;;;9.28;58.40;98716.41;5052847;28;20605;-60
2023/03/18 07:52:43;;;;;;;8.25;6.53;;;;;;;8.98;57.87;98660.56;5052176;28;20590;-60
2023/03/18 07:55:10;;;;;;;10.95;6.95;;;;;;;9.13;58.64;98699.22;5051156;28;20200;-60
2023/03/18 07:57:36;;;;;;;9.32;6.10;;;;;;;9.00;58.78;98669.03;5052408;28;20193;-60
2023/03/18 08:00:05;;;;;;;9.55;4.82;;;;;;;8.97;55.70;98675.22;5052672;28;20208;-60
2023/03/18 08:02:30;;;;;;;11.45;5.43;;;;;;;8.64;55.81;98623.00;5052236;28;20617;-60
2023/03/18 08:04:56;;;;;;;5.15;4.45;;;;;;;8.74;54.88;98643.91;5051887;28;20178;-60
2023/03/18 08:07:23;;;;;;;5.65;4.15;;;;;;;8.97;55.21;98685.53;5051754;28;20178;-60
2023/03/18 08:09:49;;;;;;;6.05;5.13;;;;;;;8.72;55.41;98638.84;5052195;28;20227;-60
2023/03/18 08:12:18;;;;;;;7.30;5.85;;;;;;;8.80;55.27;98659.88;5051901;28;20600;-60
2023/03/18 08:14:43;;;;;;;11.68;6.18;;;;;;;9.12;55.42;98709.63;5052145;28;20192;-60
2023/03/18 08:17:09;;;;;;;6.88;6.20;;;;;;;8.82;55.93;98650.31;5052074;28;20173;-60
2023/03/18 08:19:35;;;;;;;8.48;7.15;;;;;;;9.14;56.57;98733.63;5052053;28;20265;-60
2023/03/18 08:22:03;;;;;;;10.77;7.05;;;;;;;8.95;57.46;98700.28;5052069;28;20213;-60
2023/03/18 08:24:28;;;;;;;13.48;8.70;;;;;;;9.12;58.11;98718.22;5051990;28;20228;-60
2023/03/18 08:26:55;;;;;;;11.27;8.48;;;;;;;9.26;58.07;98746.63;5052005;28;20216;-60
2023/03/18 08:29:20;;;;;;;12.73;7.93;;;;;;;8.78;58.45;98648.81;5029456;28;20210;-60
2023/03/18 08:31:45;;;;;;;11.23;8.35;;;;;;;9.13;58.52;98719.03;5029655;28;20213;-60
2023/03/18 08:34:12;;;;;;;9.80;6.70;;;;;;;9.29;58.16;98741.31;5029699;28;20189;-60
2023/03/18 08:36:39;;;;;;;10.98;6.60;;;;;;;8.73;57.83;98665.47;5029659;28;20182;-60
2023/03/18 08:39:05;;;;;;;11.98;6.57;;;;;;;8.89;58.36;98707.53;5029575;28;20195;-60
2023/03/18 08:41:31;;;;;;;7.90;6.38;;;;;;;9.09;58.63;98741.59;5029570;28;20244;-60
2023/03/18 08:43:57;;;;;;;14.40;7.38;;;;;;;9.05;57.94;98714.31;5029495;28;20190;-60
2023/03/18 08:46:23;;;;;;;11.32;7.78;;;;;;;8.94;57.91;98696.03;5033176;28;20273;-60
2023/03/18 08:48:48;;;;;;;13.20;8.23;;;;;;;8.86;57.56;98671.59;5033547;28;20823;-60
2023/03/18 08:51:15;;;;;;;10.18;7.20;;;;;;;8.94;57.40;98677.97;5033520;28;20189;-60
2023/03/18 08:53:41;;;;;;;9.35;6.80;;;;;;;9.32;56.83;98730.78;5033425;28;20190;-60
2023/03/18 08:56:07;;;;;;;11.45;7.07;;;;;;;9.45;56.36;98752.41;5033324;28;20280;-60
2023/03/18 08:58:32;;;;;;;11.73;7.75;;;;;;;9.27;55.79;98737.97;5033363;28;20178;-60
2023/03/18 09:00:58;;;;;;;10.38;7.15;;;;;;;9.00;56.45;98710.31;5050422;28;20228;-60
2023/03/18 09:03:23;;;;;;;12.68;8.30;;;;;;;8.76;56.94;98671.28;5055635;28;20197;-60
2023/03/18 09:05:52;;;;;;;9.85;6.13;;;;;;;9.30;56.62;98755.88;5055578;28;20209;-60
2023/03/18 09:08:18;;;;;;;13.75;7.07;;;;;;;8.91;56.69;98675.56;5055452;28;20667;-60
2023/03/18 09:10:45;;;;;;;14.38;8.93;;;;;;;9.36;56.72;98745.19;5055448;28;20174;-60
2023/03/18 09:13:11;;;;;;;10.75;7.35;;;;;;;9.26;56.67;98727.75;5055487;28;20671;-60
2023/03/18 09:15:36;;;;;;;9.68;6.68;;;;;;;9.17;55.94;98708.44;5055367;28;20178;-60
2023/03/18 09:18:02;;;;;;;10.07;7.47;;;;;;;9.23;56.26;98718.41;5055407;28;20598;-60
2023/03/18 09:20:28;;;;;;;14.52;7.38;;;;;;;9.42;55.71;98773.22;5055257;28;20272;-60
2023/03/18 09:22:53;;;;;;;12.27;8.48;;;;;;;9.14;55.83;98726.69;5054978;28;20554;-60
2023/03/18 09:25:19;;;;;;;12.23;8.25;;;;;;;8.84;56.34;98712.13;5055218;28;20178;-60
2023/03/18 09:27:44;;;;;;;10.95;7.65;;;;;;;8.80;56.67;98711.47;5054847;28;20182;-60
2023/03/18 09:30:10;;;;;;;12.80;7.55;;;;;;;8.89;56.66;98723.00;5054740;28;20209;-60
2023/03/18 09:32:38;;;;;;;13.52;8.85;;;;;;;8.99;57.24;98762.88;5054377;28;20670;-61
2023/03/18 09:35:04;;;;;;;11.13;7.72;;;;;;;8.69;57.91;98721.53;5054800;28;20174;-60
2023/03/18 09:37:29;;;;;;;12.98;9.15;;;;;;;8.77;57.83;98749.50;5052218;28;20251;-60
2023/03/18 09:39:55;;;;;;;18.48;10.80;;;;;;;8.77;57.85;98744.34;5052401;28;20190;-60
2023/03/18 09:42:44;;;;;;;25.17;13.07;;;;;;;8.87;58.13;98797.09;5052453;28;20194;-60
2023/03/18 09:45:20;;;;;;;26.48;13.40;;;;;;;8.80;58.64;98790.63;5012907;28;20211;-61
2023/03/18 09:48:00;;;;;;;15.15;9.80;;;;;;;8.69;59.31;98804.09;5012744;28;20206;-60
2023/03/18 09:50:32;;;;;;;10.68;8.65;;;;;;;8.72;59.10;98803.94;5012782;28;20194;-60
2023/03/18 09:53:31;;;;;;;17.98;10.75;;;;;;;8.79;58.74;98809.59;5012568;28;20190;-60
2023/03/18 09:56:00;;;;;;;15.60;8.40;;;;;;;8.63;58.63;98809.59;5011499;28;20393;-61
2023/03/18 09:58:52;;;;;;;13.40;8.15;;;;;;;8.78;58.38;98810.50;5012289;28;20195;-60
2023/03/18 10:01:21;;;;;;;11.98;7.88;;;;;;;8.82;58.33;98805.09;5012533;28;20633;-60
2023/03/18 10:04:27;;;;;;;7.88;7.07;;;;;;;8.66;59.03;98803.44;5012166;28;20200;-60
2023/03/18 10:06:59;;;;;;;9.23;7.13;;;;;;;8.66;59.48;98801.69;4992617;28;20202;-60
2023/03/18 10:09:38;;;;;;;11.20;8.77;;;;;;;8.76;59.84;98800.28;4992706;28;20208;-60
2023/03/18 10:12:19;;;;;;;11.02;8.18;;;;;;;8.62;59.85;98792.44;4992890;28;20214;-61
2023/03/18 10:14:53;;;;;;;19.23;16.48;;;;;;;8.62;60.06;98813.09;4992152;28;20627;-60
2023/03/18 10:17:36;;;;;;;10.90;9.43;;;;;;;8.49;60.85;98811.25;4992160;28;20583;-60
2023/03/18 10:20:05;;;;;;;13.40;7.78;;;;;;;7.76;61.04;98729.22;4991566;28;20639;-60
2023/03/18 10:22:30;;;;;;;10.88;7.88;;;;;;;8.34;61.61;98818.06;4992857;28;20694;-60
2023/03/18 10:25:15;;;;;;;11.82;8.48;;;;;;;8.33;60.82;98811.25;4992755;28;20270;-60
2023/03/18 10:28:05;;;;;;;13.32;8.32;;;;;;;8.46;60.41;98816.59;4992108;28;20218;-60
2023/03/18 10:30:51;;;;;;;13.63;9.00;;;;;;;8.41;60.72;98813.41;4992314;28;20286;-61
2023/03/18 10:33:33;;;;;;;11.55;7.32;;;;;;;8.14;60.67;98753.81;4992551;28;20179;-60
2023/03/18 10:36:11;;;;;;;11.40;8.75;;;;;;;8.22;59.93;98728.47;4992438;28;20176;-61
2023/03/18 10:38:41;;;;;;;8.05;6.38;;;;;;;8.68;58.31;98802.44;5007122;28;20205;-60
2023/03/18 10:41:35;;;;;;;8.13;6.07;;;;;;;8.78;58.44;98802.75;5011911;28;20179;-61
2023/03/18 10:44:15;;;;;;;8.25;6.10;;;;;;;8.65;56.96;98776.81;5011020;28;20721;-60
2023/03/18 10:46:43;;;;;;;10.85;7.05;;;;;;;8.52;57.13;98744.03;5011777;28;20167;-60
2023/03/18 10:49:19;;;;;;;19.75;9.30;;;;;;;8.65;56.19;98765.66;5011593;28;20237;-60
2023/03/18 10:52:10;;;;;;;6.15;4.85;;;;;;;9.10;55.22;98807.78;5011635;28;20299;-60
2023/03/18 10:54:44;;;;;;;8.60;5.63;;;;;;;9.24;54.73;98813.03;5010924;28;20256;-60
2023/03/18 10:57:14;;;;;;;16.58;9.27;;;;;;;9.20;55.21;98785.72;5010883;28;20583;-60
2023/03/18 10:59:43;;;;;;;10.52;6.95;;;;;;;9.30;54.48;98768.78;5029639;28;20191;-60
2023/03/18 11:02:34;;;;;;;20.52;12.27;;;;;;;9.29;55.04;98727.53;5030898;28;20291;-60
2023/03/18 11:05:10;;;;;;;5.97;4.20;;;;;;;9.19;50.44;98742.75;5030904;28;20673;-60
2023/03/18 11:07:54;;;;;;;5.47;3.75;;;;;;;9.59;49.86;98804.09;5029320;28;20170;-60
2023/03/18 11:10:24;;;;;;;4.55;3.72;;;;;;;9.49;49.93;98800.34;5045446;28;20229;-60
2023/03/18 11:12:58;;;;;;;5.22;4.70;;;;;;;9.60;50.07;98792.81;5050832;28;20200;-60
2023/03/18 11:15:25;;;;;;;5.13;4.18;;;;;;;9.48;50.20;98743.63;5030792;28;20194;-60
2023/03/18 11:17:51;;;;;;;5.47;4.65;;;;;;;9.95;50.97;98786.41;5030856;28;20590;-60
2023/03/18 11:20:43;;;;;;;6.30;5.38;;;;;;;9.89;50.45;98750.59;5030861;28;20190;-59
2023/03/18 11:23:34;;;;;;;5.35;4.85;;;;;;;10.01;49.28;98730.00;5030889;28;20167;-59
2023/03/18 11:26:01;;;;;;;5.15;4.60;;;;;;;10.27;49.62;98787.91;5010972;28;20222;-60
2023/03/18 11:28:28;;;;;;;5.93;5.05;;;;;;;9.64;49.61;98703.91;5010897;28;20282;-60
2023/03/18 11:30:59;;;;;;;6.97;5.50;;;;;;;9.74;49.62;98735.97;5022518;28;20281;-59
2023/03/18 11:33:30;;;;;;;5.57;5.03;;;;;;;10.02;49.23;98748.91;5030596;28;20265;-60
2023/03/18 11:35:58;;;;;;;5.82;4.90;;;;;;;10.12;49.50;98750.06;5030583;28;20202;-59
2023/03/18 11:38:34;;;;;;;7.63;5.32;;;;;;;10.47;49.21;98800.44;5030536;28;20186;-59
2023/03/18 11:41:25;;;;;;;7.93;5.75;;;;;;;10.59;48.93;98791.91;5030463;28;20205;-60
2023/03/18 11:44:17;;;;;;;7.30;5.28;;;;;;;10.69;49.26;98791.22;5030475;28;20555;-60